Time;durP1;ratioP1;P1;durP2;ratioP2;P2;SDS_P1;SDS_P2;PMS_P1;PMS_P2;Temp;Humidity;BMP_temperature;BMP_pressure;BME280_temperature;BME280_humidity;BME280_pressure;Samples;Min_cycle;Max_cycle;Signal;HPM_P1;HPM_P2
2022/09/25 00:00:35;;;;;;;;;;;;;;;19.65;59.54;100819.03;5030884;28;4205;-68
2022/09/25 00:03:02;;;;;;;;;;;;;;;19.65;59.62;100824.00;5034104;28;4231;-68
2022/09/25 00:05:28;;;;;;;;;;;;;;;19.66;59.44;100826.25;5033409;28;4199;-68
2022/09/25 00:07:55;;;;;;;;;;;;;;;19.66;59.42;100817.63;5012585;28;4267;-68
2022/09/25 00:10:24;;;;;;;;;;;;;;;19.65;59.45;100816.16;5027946;28;4239;-68
2022/09/25 00:12:50;;;;;;;;;;;;;;;19.64;59.61;100816.78;5035126;28;4330;-68
2022/09/25 00:15:17;;;;;;;;;;;;;;;19.63;59.70;100818.94;5029499;28;4185;-68
2022/09/25 00:17:43;;;;;;;;;;;;;;;19.64;59.40;100814.66;5030829;28;4284;-68
2022/09/25 00:20:09;;;;;;;;;;;;;;;19.65;59.56;100806.78;5033615;28;4222;-68
2022/09/25 00:22:35;;;;;;;;;;;;;;;19.65;59.60;100815.41;5034622;28;4249;-68
2022/09/25 00:25:02;;;;;;;;;;;;;;;19.62;59.58;100803.06;5034324;28;4252;-69
2022/09/25 00:27:28;;;;;;;;;;;;;;;19.69;59.26;100806.28;5029838;28;5381;-69
2022/09/25 00:29:55;;;;;;;;;;;;;;;19.69;59.33;100807.00;5029178;28;4199;-67
2022/09/25 00:32:21;;;;;;;;;;;;;;;19.68;59.27;100794.00;5026262;28;4229;-68
2022/09/25 00:34:48;;;;;;;;;;;;;;;19.67;59.44;100799.00;5027319;28;5311;-68
2022/09/25 00:37:14;;;;;;;;;;;;;;;19.65;59.40;100795.28;5031831;28;4235;-67
2022/09/25 00:39:40;;;;;;;;;;;;;;;19.65;59.59;100798.16;5032039;28;4233;-68
2022/09/25 00:42:09;;;;;;;;;;;;;;;19.64;59.49;100800.28;5034636;28;5333;-67
2022/09/25 00:44:51;;;;;;;;;;;;;;;19.64;59.56;100800.28;5025822;28;4228;-68
2022/09/25 00:47:19;;;;;;;;;;;;;;;19.65;59.46;100796.06;5022644;28;4396;-68
2022/09/25 00:49:45;;;;;;;;;;;;;;;19.64;59.56;100793.81;5035113;28;4317;-67
2022/09/25 00:52:12;;;;;;;;;;;;;;;19.62;59.75;100791.56;5032370;28;5517;-67
2022/09/25 00:54:39;;;;;;;;;;;;;;;19.63;59.57;100790.22;5021440;28;4138;-68
2022/09/25 00:57:07;;;;;;;;;;;;;;;19.61;59.58;100792.97;5031239;28;5314;-67
2022/09/25 00:59:34;;;;;;;;;;;;;;;19.62;59.65;100797.31;5030908;28;5249;-68
2022/09/25 01:02:01;;;;;;;;;;;;;;;19.62;59.60;100785.84;5024004;28;4447;-68
2022/09/25 01:04:27;;;;;;;;;;;;;;;19.60;59.52;100794.34;5028036;28;5429;-67
2022/09/25 01:06:54;;;;;;;;;;;;;;;19.62;59.55;100793.72;5016949;28;4212;-68
2022/09/25 01:09:20;;;;;;;;;;;;;;;19.62;59.40;100797.31;5027979;28;5202;-68
2022/09/25 01:11:46;;;;;;;;;;;;;;;19.63;59.42;100781.59;5030451;28;4299;-68
2022/09/25 01:14:16;;;;;;;;;;;;;;;19.62;59.55;100788.72;5033166;28;4242;-68
2022/09/25 01:16:46;;;;;;;;;;;;;;;19.61;59.51;100790.09;5026599;28;5498;-68
2022/09/25 01:19:30;;;;;;;;;;;;;;;19.61;59.72;100783.63;5013166;28;5288;-67
2022/09/25 01:22:03;;;;;;;;;;;;;;;19.63;59.53;100790.22;5002491;28;5280;-68
2022/09/25 01:24:49;;;;;;;;;;;;;;;19.63;59.49;100780.81;5030228;28;4400;-68
2022/09/25 01:27:18;;;;;;;;;;;;;;;19.62;59.51;100774.34;5018940;28;4235;-67
2022/09/25 01:30:04;;;;;;;;;;;;;;;19.63;59.54;100777.94;5024599;28;5547;-67
2022/09/25 01:32:32;;;;;;;;;;;;;;;19.62;59.60;100773.59;5026313;28;4184;-68
2022/09/25 01:34:58;;;;;;;;;;;;;;;19.60;59.56;100771.38;5027184;28;4242;-67
2022/09/25 01:37:25;;;;;;;;;;;;;;;19.59;59.46;100775.63;5022692;28;5447;-67
2022/09/25 01:40:04;;;;;;;;;;;;;;;19.60;59.51;100765.63;5034037;28;4226;-67
2022/09/25 01:42:33;;;;;;;;;;;;;;;19.61;59.59;100770.00;5030639;28;4234;-67
2022/09/25 01:45:01;;;;;;;;;;;;;;;19.62;59.54;100767.88;5033710;28;4108;-67
2022/09/25 01:47:28;;;;;;;;;;;;;;;19.61;59.62;100772.13;5026883;28;5261;-67
2022/09/25 01:49:55;;;;;;;;;;;;;;;19.60;59.65;100771.38;5027714;28;4247;-67
2022/09/25 01:52:24;;;;;;;;;;;;;;;19.60;59.53;100771.38;5030561;28;5342;-68
2022/09/25 01:54:51;;;;;;;;;;;;;;;19.59;59.60;100772.78;5032752;28;5245;-68
2022/09/25 01:57:19;;;;;;;;;;;;;;;19.59;59.52;100769.91;5022087;28;5463;-68
2022/09/25 01:59:48;;;;;;;;;;;;;;;19.59;59.59;100764.16;5033897;28;4128;-67
2022/09/25 02:02:18;;;;;;;;;;;;;;;19.61;59.60;100772.13;5025283;28;5432;-67
2022/09/25 02:04:59;;;;;;;;;;;;;;;19.60;59.56;100768.50;5025370;28;4150;-68
2022/09/25 02:07:26;;;;;;;;;;;;;;;19.60;59.47;100771.38;5027528;28;4300;-67
2022/09/25 02:10:01;;;;;;;;;;;;;;;19.61;59.45;100772.88;5026007;28;5320;-68
2022/09/25 02:12:33;;;;;;;;;;;;;;;19.59;59.60;100767.03;5023344;28;4169;-67
2022/09/25 02:15:04;;;;;;;;;;;;;;;19.59;59.60;100766.28;5026373;28;4219;-68
2022/09/25 02:20:33;;;;;;;;;;;;;;;19.59;59.55;100769.91;5030393;28;5328;-67
2022/09/25 02:23:07;;;;;;;;;;;;;;;19.59;59.45;100769.91;5023421;28;5251;-67
2022/09/25 02:25:36;;;;;;;;;;;;;;;19.58;59.61;100765.53;5016181;28;4452;-67
2022/09/25 02:28:02;;;;;;;;;;;;;;;19.57;59.65;100761.19;5027531;28;4209;-67
2022/09/25 02:30:29;;;;;;;;;;;;;;;19.59;59.52;100763.41;5030678;28;5301;-67
2022/09/25 02:32:56;;;;;;;;;;;;;;;19.59;59.62;100764.16;5026790;28;4171;-67
2022/09/25 02:35:23;;;;;;;;;;;;;;;19.57;59.53;100766.94;5030464;28;4329;-67
2022/09/25 02:37:50;;;;;;;;;;;;;;;19.59;59.42;100761.28;5027961;28;4251;-67
2022/09/25 02:40:16;;;;;;;;;;;;;;;19.60;59.65;100768.50;5023766;28;4189;-67
2022/09/25 02:42:49;;;;;;;;;;;;;;;19.63;59.62;100772.22;5026907;28;5313;-67
2022/09/25 02:45:34;;;;;;;;;;;;;;;19.63;59.61;100770.09;5021182;28;4222;-67
2022/09/25 02:48:17;;;;;;;;;;;;;;;19.64;59.62;100771.56;5030721;28;4306;-67
2022/09/25 02:50:50;;;;;;;;;;;;;;;19.66;59.52;100763.06;5026832;28;5292;-67
2022/09/25 02:53:35;;;;;;;;;;;;;;;19.67;59.54;100758.78;5025097;28;4247;-68
2022/09/25 02:56:23;;;;;;;;;;;;;;;19.70;59.55;100767.53;5025424;28;5301;-67
2022/09/25 02:58:51;;;;;;;;;;;;;;;19.70;59.63;100761.78;5022693;28;4159;-67
2022/09/25 03:01:17;;;;;;;;;;;;;;;19.71;59.73;100763.28;5026321;28;4616;-66
2022/09/25 03:03:44;;;;;;;;;;;;;;;19.72;59.63;100756.13;5029704;28;5625;-67
2022/09/25 03:06:10;;;;;;;;;;;;;;;19.73;59.35;100763.38;5029722;28;4261;-66
2022/09/25 03:08:38;;;;;;;;;;;;;;;19.70;59.46;100751.06;5029554;28;4165;-67
2022/09/25 03:11:04;;;;;;;;;;;;;;;19.72;59.70;100759.75;5023838;28;4255;-67
2022/09/25 03:13:32;;;;;;;;;;;;;;;19.72;59.64;100765.50;5033632;28;5450;-66
2022/09/25 03:15:59;;;;;;;;;;;;;;;19.72;59.52;100761.88;5024437;28;5409;-67
2022/09/25 03:18:26;;;;;;;;;;;;;;;19.73;59.60;100760.50;5029979;28;4202;-67
2022/09/25 03:20:52;;;;;;;;;;;;;;;19.72;59.59;100753.25;5027697;28;4271;-66
2022/09/25 03:23:18;;;;;;;;;;;;;;;19.73;59.70;100754.75;5028209;28;5380;-67
2022/09/25 03:25:45;;;;;;;;;;;;;;;19.72;59.82;100759.00;5021314;28;4231;-67
2022/09/25 03:28:16;;;;;;;;;;;;;;;19.70;59.52;100750.28;5030883;28;4340;-68
2022/09/25 03:30:43;;;;;;;;;;;;;;;19.73;59.74;100746.16;5025070;28;5254;-67
2022/09/25 03:33:10;;;;;;;;;;;;;;;19.74;59.93;100756.22;5023492;28;5293;-66
2022/09/25 03:35:36;;;;;;;;;;;;;;;19.73;59.43;100738.25;5026887;28;5270;-67
2022/09/25 03:38:03;;;;;;;;;;;;;;;19.74;59.90;100750.47;5030416;28;4202;-67
2022/09/25 03:40:29;;;;;;;;;;;;;;;19.73;59.93;100743.28;5029746;28;5260;-67
2022/09/25 03:42:58;;;;;;;;;;;;;;;19.72;59.87;100747.50;5032674;28;4260;-67
2022/09/25 03:45:24;;;;;;;;;;;;;;;19.72;59.87;100733.16;5021704;28;4116;-67
2022/09/25 03:47:50;;;;;;;;;;;;;;;19.73;59.85;100734.66;5028976;28;4385;-67
2022/09/25 03:50:16;;;;;;;;;;;;;;;19.72;60.11;100739.63;5030222;28;5266;-67
2022/09/25 03:52:43;;;;;;;;;;;;;;;19.73;60.12;100743.28;5032158;28;5328;-67
2022/09/25 03:55:10;;;;;;;;;;;;;;;19.72;60.32;100733.16;5028111;28;5115;-67
2022/09/25 03:57:38;;;;;;;;;;;;;;;19.68;60.47;100730.81;5032927;28;4159;-67
2022/09/25 04:00:05;;;;;;;;;;;;;;;19.67;60.62;100721.44;5030287;28;5389;-67
2022/09/25 04:02:37;;;;;;;;;;;;;;;19.69;60.47;100731.59;5025402;28;5488;-67
2022/09/25 04:05:04;;;;;;;;;;;;;;;19.69;60.71;100725.84;5029421;28;4183;-67
2022/09/25 04:07:31;;;;;;;;;;;;;;;19.68;60.47;100730.81;5027800;28;4198;-67
2022/09/25 04:09:57;;;;;;;;;;;;;;;19.70;60.41;100736.69;5033029;28;4305;-67
2022/09/25 04:12:23;;;;;;;;;;;;;;;19.68;60.42;100730.81;5035943;28;5071;-67
2022/09/25 04:14:50;;;;;;;;;;;;;;;19.69;60.57;100737.31;5032219;28;4147;-67
2022/09/25 04:17:16;;;;;;;;;;;;;;;19.68;60.64;100742.31;5029138;28;5240;-67
2022/09/25 04:19:42;;;;;;;;;;;;;;;19.67;60.76;100741.53;5033857;28;4140;-67
2022/09/25 04:22:09;;;;;;;;;;;;;;;19.66;60.87;100742.94;5030271;28;5272;-67
2022/09/25 04:24:47;;;;;;;;;;;;;;;19.66;60.68;100747.94;5035919;28;4206;-67
2022/09/25 04:27:15;;;;;;;;;;;;;;;19.64;60.77;100748.59;5034625;28;5411;-67
2022/09/25 04:29:42;;;;;;;;;;;;;;;19.67;60.88;100746.56;5036487;28;4174;-67
2022/09/25 04:34:53;;;;;;;;;;;;;;;19.66;60.70;100748.69;5036681;28;4281;-67
2022/09/25 04:37:25;;;;;;;;;;;;;;;19.66;60.84;100748.69;5023783;28;4188;-67
2022/09/25 04:39:54;;;;;;;;;;;;;;;19.66;60.91;100751.56;5031255;28;4217;-67
2022/09/25 04:42:24;;;;;;;;;;;;;;;19.64;60.72;100748.59;5033432;28;4182;-67
2022/09/25 04:44:51;;;;;;;;;;;;;;;19.65;60.92;100743.59;5030451;28;4144;-68
2022/09/25 04:47:17;;;;;;;;;;;;;;;19.63;61.17;100752.09;5032460;28;6311;-67
2022/09/25 04:49:44;;;;;;;;;;;;;;;19.64;61.03;100744.97;5030095;28;4261;-67
2022/09/25 04:52:13;;;;;;;;;;;;;;;19.63;61.04;100744.25;5033809;28;4196;-67
2022/09/25 04:54:41;;;;;;;;;;;;;;;19.63;60.94;100747.13;5030561;28;5219;-67
2022/09/25 04:57:08;;;;;;;;;;;;;;;19.63;60.91;100747.13;5024607;28;5290;-67
2022/09/25 04:59:34;;;;;;;;;;;;;;;19.62;60.93;100745.63;5033558;28;4208;-68
2022/09/25 05:02:00;;;;;;;;;;;;;;;19.63;60.77;100747.13;5032959;28;4189;-67
2022/09/25 05:04:27;;;;;;;;;;;;;;;19.62;61.17;100751.38;5030505;28;4060;-67
2022/09/25 05:06:53;;;;;;;;;;;;;;;19.65;60.85;100747.22;5031624;28;4245;-67
2022/09/25 05:09:20;;;;;;;;;;;;;;;19.65;60.79;100750.09;5030606;28;5257;-67
2022/09/25 05:11:46;;;;;;;;;;;;;;;19.69;60.59;100740.94;5030296;28;4194;-67
2022/09/25 05:14:12;;;;;;;;;;;;;;;19.70;61.04;100747.41;5030286;28;5368;-67
2022/09/25 05:16:39;;;;;;;;;;;;;;;19.69;60.77;100746.69;5024184;28;4283;-67
2022/09/25 05:19:05;;;;;;;;;;;;;;;19.72;60.69;100747.50;5017358;28;4227;-67
2022/09/25 05:21:31;;;;;;;;;;;;;;;19.74;60.64;100756.97;5010816;28;4391;-67
2022/09/25 05:23:58;;;;;;;;;;;;;;;19.75;60.75;100754.84;5029904;28;5364;-68
2022/09/25 05:26:25;;;;;;;;;;;;;;;19.75;60.60;100751.97;5022927;28;4196;-67
2022/09/25 05:28:51;;;;;;;;;;;;;;;19.74;60.85;100762.72;5027993;28;4225;-67
2022/09/25 05:31:17;;;;;;;;;;;;;;;19.77;60.49;100761.44;5019438;28;4293;-70
2022/09/25 05:33:44;;;;;;;;;;;;;;;19.76;60.33;100756.34;5029373;28;5236;-67
2022/09/25 05:36:11;;;;;;;;;;;;;;;19.76;60.67;100759.22;5031618;28;4137;-67
2022/09/25 05:38:38;;;;;;;;;;;;;;;19.78;60.82;100773.66;5031572;28;4290;-68
2022/09/25 05:41:05;;;;;;;;;;;;;;;19.78;60.59;100767.91;5028092;28;4199;-68
2022/09/25 05:43:31;;;;;;;;;;;;;;;19.77;60.52;100770.06;5028373;28;4157;-67
2022/09/25 05:45:58;;;;;;;;;;;;;;;19.77;60.40;100763.56;5024276;28;5633;-67
2022/09/25 05:48:25;;;;;;;;;;;;;;;19.75;60.58;100754.84;5024117;28;4151;-67
2022/09/25 05:50:54;;;;;;;;;;;;;;;19.75;60.81;100751.97;5025196;28;4288;-67
2022/09/25 05:53:21;;;;;;;;;;;;;;;19.77;61.13;100760.69;5027409;28;4193;-67
2022/09/25 05:55:48;;;;;;;;;;;;;;;19.79;60.51;100755.03;5024489;28;4318;-67
2022/09/25 05:58:14;;;;;;;;;;;;;;;19.79;60.68;100752.16;5027088;28;4238;-67
2022/09/25 06:00:41;;;;;;;;;;;;;;;19.79;60.57;100746.41;5024235;28;5283;-67
2022/09/25 06:03:07;;;;;;;;;;;;;;;19.80;60.60;100754.41;5030380;28;4907;-67
2022/09/25 06:05:34;;;;;;;;;;;;;;;19.79;60.32;100757.91;5024836;28;4224;-67
2022/09/25 06:08:00;;;;;;;;;;;;;;;19.80;60.47;100759.41;5030755;28;4166;-67
2022/09/25 06:10:27;;;;;;;;;;;;;;;19.80;60.58;100759.41;5029579;28;4282;-67
2022/09/25 06:12:57;;;;;;;;;;;;;;;19.80;60.75;100765.88;5026022;28;4262;-68
2022/09/25 06:15:27;;;;;;;;;;;;;;;19.79;60.78;100757.91;5020294;28;4462;-68
2022/09/25 06:17:54;;;;;;;;;;;;;;;19.81;60.64;100755.13;5025851;28;4219;-67
2022/09/25 06:20:21;;;;;;;;;;;;;;;19.79;60.57;100743.53;5025874;28;4153;-67
2022/09/25 06:22:53;;;;;;;;;;;;;;;19.81;60.40;100750.16;5032482;28;4218;-68
2022/09/25 06:25:21;;;;;;;;;;;;;;;19.81;60.53;100755.13;5022291;28;5285;-67
2022/09/25 06:27:50;;;;;;;;;;;;;;;19.79;60.65;100755.03;5022568;28;4252;-68
2022/09/25 06:30:18;;;;;;;;;;;;;;;19.82;60.86;100750.88;5024794;28;4196;-70
2022/09/25 06:32:45;;;;;;;;;;;;;;;19.82;60.57;100753.75;5025641;28;4323;-67
2022/09/25 06:35:11;;;;;;;;;;;;;;;19.82;60.67;100756.63;5027459;28;4236;-67
2022/09/25 06:37:37;;;;;;;;;;;;;;;19.81;60.61;100755.88;5031990;28;4060;-67
2022/09/25 06:40:04;;;;;;;;;;;;;;;19.80;60.65;100753.66;5026757;28;4221;-67
2022/09/25 06:42:33;;;;;;;;;;;;;;;19.81;60.98;100755.13;5027364;28;4169;-67
2022/09/25 06:45:00;;;;;;;;;;;;;;;19.85;60.03;100749.56;5012898;28;4181;-65
2022/09/25 06:47:26;;;;;;;;;;;;;;;19.78;59.61;100756.44;5020874;28;4225;-62
2022/09/25 06:49:53;;;;;;;;;;;;;;;19.74;59.73;100750.47;5025693;28;4260;-61
2022/09/25 06:52:19;;;;;;;;;;;;;;;19.83;59.66;100752.34;5032593;28;4221;-61
2022/09/25 06:54:45;;;;;;;;;;;;;;;19.85;60.52;100755.31;5033856;28;4339;-63
2022/09/25 06:57:12;;;;;;;;;;;;;;;19.86;59.97;100757.56;5029145;28;4256;-61
2022/09/25 06:59:38;;;;;;;;;;;;;;;19.91;59.96;100755.63;5030088;28;5339;-62
2022/09/25 07:04:50;;;;;;;;;;;;;;;19.90;60.64;100751.25;5033928;28;4173;-61
2022/09/25 07:07:20;;;;;;;;;;;;;;;19.92;60.52;100754.22;5034085;28;4205;-63
2022/09/25 07:09:49;;;;;;;;;;;;;;;19.95;60.48;100757.91;5029746;28;4207;-62
2022/09/25 07:12:17;;;;;;;;;;;;;;;19.95;60.35;100752.94;5029908;28;4181;-62
2022/09/25 07:14:45;;;;;;;;;;;;;;;19.97;60.70;100749.41;5029218;28;4188;-61
2022/09/25 07:17:12;;;;;;;;;;;;;;;19.97;60.72;100755.16;5027738;28;5345;-66
2022/09/25 07:19:39;;;;;;;;;;;;;;;19.99;61.23;100747.34;5022954;28;4078;-68
2022/09/25 07:22:05;;;;;;;;;;;;;;;19.95;61.63;100752.94;5034940;28;4179;-68
2022/09/25 07:24:32;;;;;;;;;;;;;;;19.98;61.35;100757.38;5029258;28;4194;-69
2022/09/25 07:26:58;;;;;;;;;;;;;;;19.95;61.48;100764.44;5029628;28;4155;-68
2022/09/25 07:29:25;;;;;;;;;;;;;;;20.00;61.76;100754.59;5034409;28;4161;-69
2022/09/25 07:31:51;;;;;;;;;;;;;;;19.98;61.34;100751.63;5034497;28;5307;-68
2022/09/25 07:34:17;;;;;;;;;;;;;;;20.00;61.29;100751.72;5034735;28;4267;-69
2022/09/25 07:36:44;;;;;;;;;;;;;;;19.99;61.28;100755.97;5034331;28;5242;-69
2022/09/25 07:39:10;;;;;;;;;;;;;;;19.98;61.37;100757.38;5037099;28;4202;-68
2022/09/25 07:41:42;;;;;;;;;;;;;;;19.98;61.17;100757.38;5039421;28;4200;-69
2022/09/25 07:44:09;;;;;;;;;;;;;;;20.00;61.22;100760.34;5033880;28;5342;-68
2022/09/25 07:46:55;;;;;;;;;;;;;;;19.98;61.60;100760.25;5035965;28;4319;-68
2022/09/25 07:49:21;;;;;;;;;;;;;;;19.98;61.27;100751.63;5039280;28;4914;-68
2022/09/25 07:51:48;;;;;;;;;;;;;;;19.99;61.17;100750.22;5038268;28;4303;-69
2022/09/25 07:54:14;;;;;;;;;;;;;;;19.97;61.11;100750.13;5037584;28;5206;-69
2022/09/25 07:56:40;;;;;;;;;;;;;;;19.97;61.33;100755.88;5037509;28;4135;-68
2022/09/25 07:59:07;;;;;;;;;;;;;;;19.94;61.05;100751.44;5039104;28;5333;-67
2022/09/25 08:01:33;;;;;;;;;;;;;;;19.95;61.09;100752.94;5036895;28;4241;-67
2022/09/25 08:04:06;;;;;;;;;;;;;;;19.96;60.79;100745.06;5037098;28;3990;-69
2022/09/25 08:06:33;;;;;;;;;;;;;;;19.96;61.24;100747.94;5039332;28;4213;-69
2022/09/25 08:08:59;;;;;;;;;;;;;;;19.97;60.86;100743.66;5040616;28;4265;-69
2022/09/25 08:11:26;;;;;;;;;;;;;;;19.96;60.90;100742.91;5038507;28;5372;-70
2022/09/25 08:13:53;;;;;;;;;;;;;;;19.94;61.06;100742.81;5038238;28;5177;-70
2022/09/25 08:16:21;;;;;;;;;;;;;;;19.96;60.94;100742.91;5039916;28;4498;-71
2022/09/25 08:18:48;;;;;;;;;;;;;;;19.95;60.82;100741.44;5038501;28;4207;-70
2022/09/25 08:21:15;;;;;;;;;;;;;;;19.97;60.76;100737.91;5037904;28;4240;-72
2022/09/25 08:23:42;;;;;;;;;;;;;;;19.97;60.87;100732.16;5040466;28;4304;-72
2022/09/25 08:26:13;;;;;;;;;;;;;;;19.94;61.13;100734.19;5035537;28;5305;-71
2022/09/25 08:28:39;;;;;;;;;;;;;;;19.92;61.05;100731.22;5037005;28;4244;-69
2022/09/25 08:31:07;;;;;;;;;;;;;;;19.93;61.00;100735.59;5035661;28;4418;-66
2022/09/25 08:33:34;;;;;;;;;;;;;;;19.93;61.01;100731.97;5037026;28;4034;-70
2022/09/25 08:36:01;;;;;;;;;;;;;;;19.94;60.84;100731.31;5037160;28;4240;-67
2022/09/25 08:38:27;;;;;;;;;;;;;;;19.95;60.79;100732.81;5031573;28;5261;-68
2022/09/25 08:40:55;;;;;;;;;;;;;;;19.96;60.71;100734.28;5024168;28;5328;-72
2022/09/25 08:43:21;;;;;;;;;;;;;;;19.92;60.60;100736.22;5016766;28;4183;-67
2022/09/25 08:51:23;;;;;;;;;;;;;;;19.92;60.38;100742.72;5027134;28;5287;-68
2022/09/25 08:53:49;;;;;;;;;;;;;;;19.93;60.46;100737.72;5033138;28;5561;-68
2022/09/25 08:56:19;;;;;;;;;;;;;;;19.90;60.52;100736.88;5030105;28;5249;-68
2022/09/25 08:58:46;;;;;;;;;;;;;;;19.88;60.33;100736.78;5030351;28;4245;-68
2022/09/25 09:01:14;;;;;;;;;;;;;;;19.89;60.44;100738.28;5031368;28;5284;-67
2022/09/25 09:03:45;;;;;;;;;;;;;;;19.91;60.47;100740.50;5033563;28;4231;-68
2022/09/25 09:06:13;;;;;;;;;;;;;;;19.92;60.39;100736.22;5037138;28;4329;-68
2022/09/25 09:08:39;;;;;;;;;;;;;;;19.89;60.49;100732.53;5025499;28;4201;-67
2022/09/25 09:11:06;;;;;;;;;;;;;;;19.91;60.77;100726.88;5034005;28;5323;-66
2022/09/25 09:13:43;;;;;;;;;;;;;;;19.89;60.56;100732.53;5027962;28;4071;-68
2022/09/25 09:16:14;;;;;;;;;;;;;;;19.93;60.43;100732.72;5023305;28;5410;-68
2022/09/25 09:18:40;;;;;;;;;;;;;;;19.94;60.56;100728.44;5032938;28;4065;-68
2022/09/25 09:21:10;;;;;;;;;;;;;;;19.93;60.49;100726.22;5028172;28;4164;-67
2022/09/25 09:23:44;;;;;;;;;;;;;;;19.94;60.66;100727.72;5031869;28;4076;-68
2022/09/25 09:26:19;;;;;;;;;;;;;;;19.95;60.53;100727.06;5032586;28;4267;-67
2022/09/25 09:28:55;;;;;;;;;;;;;;;19.92;60.47;100719.72;5031522;28;5256;-68
2022/09/25 09:31:35;;;;;;;;;;;;;;;19.93;60.40;100726.97;5025854;28;4346;-68
2022/09/25 09:34:17;;;;;;;;;;;;;;;19.95;60.48;100723.44;5030926;28;4444;-68
2022/09/25 09:36:55;;;;;;;;;;;;;;;19.95;60.52;100724.19;5024565;28;4190;-68
2022/09/25 09:39:27;;;;;;;;;;;;;;;19.95;60.48;100717.69;5030652;28;4332;-68
2022/09/25 09:41:57;;;;;;;;;;;;;;;19.94;60.61;100710.47;5026586;28;4098;-68
2022/09/25 09:44:24;;;;;;;;;;;;;;;19.94;60.35;100722.69;5027901;28;4212;-68
2022/09/25 09:46:51;;;;;;;;;;;;;;;19.94;60.57;100716.94;5028815;28;5173;-68
2022/09/25 09:49:32;;;;;;;;;;;;;;;19.93;60.75;100703.22;5032994;28;5332;-69
2022/09/25 09:52:01;;;;;;;;;;;;;;;19.92;60.67;100708.22;5028878;28;4199;-68
2022/09/25 09:54:34;;;;;;;;;;;;;;;19.93;60.75;100703.97;5031119;28;4174;-69
2022/09/25 09:57:01;;;;;;;;;;;;;;;19.93;60.62;100709.72;5026386;28;4170;-69
2022/09/25 09:59:30;;;;;;;;;;;;;;;19.92;60.53;100708.22;5029302;28;4276;-68
2022/09/25 10:02:00;;;;;;;;;;;;;;;19.92;60.56;100705.34;5028862;28;4268;-68
2022/09/25 10:04:29;;;;;;;;;;;;;;;19.86;60.09;100708.72;5023478;28;4172;-63
2022/09/25 10:06:57;;;;;;;;;;;;;;;19.67;58.70;100692.72;5026544;28;4527;-62
2022/09/25 10:09:25;;;;;;;;;;;;;;;19.54;57.25;100699.28;5026115;28;5256;-62
2022/09/25 10:12:02;;;;;;;;;;;;;;;19.49;56.64;100691.84;5024707;28;4239;-62
2022/09/25 10:14:31;;;;;;;;;;;;;;;19.53;56.37;100691.31;5012146;28;4375;-60
2022/09/25 10:16:57;;;;;;;;;;;;;;;19.57;56.41;100695.13;5032951;28;5239;-68
2022/09/25 10:19:24;;;;;;;;;;;;;;;19.62;56.09;100688.16;5033084;28;4257;-69
2022/09/25 10:21:51;;;;;;;;;;;;;;;19.76;56.16;100691.00;5034207;28;4157;-69
2022/09/25 10:24:39;;;;;;;;;;;;;;;19.82;56.96;100690.53;5029018;28;5274;-69
2022/09/25 10:27:18;;;;;;;;;;;;;;;19.85;57.94;100692.09;5033457;28;4237;-67
2022/09/25 10:29:45;;;;;;;;;;;;;;;19.87;57.79;100692.19;5024791;28;4211;-68
2022/09/25 10:32:11;;;;;;;;;;;;;;;19.88;57.61;100690.81;5024256;28;4346;-68
2022/09/25 10:34:39;;;;;;;;;;;;;;;19.88;57.48;100693.69;5027122;28;5341;-68
2022/09/25 10:37:18;;;;;;;;;;;;;;;19.88;57.54;100690.81;5026432;28;4261;-69
2022/09/25 10:39:44;;;;;;;;;;;;;;;19.89;57.63;100686.56;5029712;28;4172;-67
2022/09/25 10:42:31;;;;;;;;;;;;;;;19.88;57.70;100700.19;5027602;28;4262;-67
2022/09/25 10:44:58;;;;;;;;;;;;;;;19.89;57.67;100692.31;5027681;28;4249;-69
2022/09/25 10:50:23;;;;;;;;;;;;;;;19.88;57.98;100685.81;5032936;28;4222;-68
2022/09/25 10:52:51;;;;;;;;;;;;;;;19.89;58.07;100680.81;5033569;28;4395;-69
2022/09/25 10:55:19;;;;;;;;;;;;;;;19.89;58.16;100689.44;5029478;28;4178;-68
2022/09/25 10:57:45;;;;;;;;;;;;;;;19.90;58.20;100693.78;5026718;28;4316;-68
2022/09/25 11:00:18;;;;;;;;;;;;;;;19.89;58.26;100683.69;5031799;28;4251;-68
2022/09/25 11:02:45;;;;;;;;;;;;;;;19.88;58.24;100690.81;5030307;28;5329;-68
2022/09/25 11:05:15;;;;;;;;;;;;;;;19.91;58.33;100701.00;5024309;28;4223;-68
2022/09/25 11:08:01;;;;;;;;;;;;;;;19.92;58.34;100691.00;5027742;28;4205;-68
2022/09/25 11:10:28;;;;;;;;;;;;;;;19.93;58.46;100686.75;5031878;28;5424;-67
2022/09/25 11:12:55;;;;;;;;;;;;;;;19.93;59.00;100691.72;5023952;28;4218;-71
2022/09/25 11:15:22;;;;;;;;;;;;;;;19.92;58.96;100679.50;5031507;28;5336;-71
2022/09/25 11:17:49;;;;;;;;;;;;;;;19.94;58.69;100681.72;5024994;28;4141;-71
2022/09/25 11:20:16;;;;;;;;;;;;;;;19.94;58.62;100675.97;5030119;28;4250;-68
2022/09/25 11:22:50;;;;;;;;;;;;;;;19.93;58.71;100681.00;5033758;28;4230;-68
2022/09/25 11:25:21;;;;;;;;;;;;;;;19.93;58.60;100675.25;5034021;28;5379;-68
2022/09/25 11:27:52;;;;;;;;;;;;;;;19.94;58.86;100676.72;5023995;28;4185;-68
2022/09/25 11:30:19;;;;;;;;;;;;;;;19.97;58.76;100672.53;5028781;28;5010;-69
2022/09/25 11:32:47;;;;;;;;;;;;;;;19.97;58.84;100663.91;5031721;28;4367;-70
2022/09/25 11:35:33;;;;;;;;;;;;;;;19.98;58.84;100658.94;5022823;28;5520;-69
2022/09/25 11:38:16;;;;;;;;;;;;;;;19.99;59.03;100654.66;5024295;28;5298;-68
2022/09/25 11:43:38;;;;;;;;;;;;;;;20.00;59.17;100645.38;5042432;28;4246;-69
2022/09/25 11:46:23;;;;;;;;;;;;;;;20.02;59.33;100653.34;5048615;28;4397;-67
2022/09/25 11:48:53;;;;;;;;;;;;;;;20.03;59.65;100644.06;5047675;28;5313;-69
2022/09/25 11:51:27;;;;;;;;;;;;;;;20.01;59.72;100646.84;5041538;28;4240;-68
2022/09/25 11:54:12;;;;;;;;;;;;;;;20.04;59.89;100634.06;5045071;28;4341;-68
2022/09/25 11:57:03;;;;;;;;;;;;;;;20.03;59.85;100638.31;5013992;28;5556;-68
2022/09/25 11:59:48;;;;;;;;;;;;;;;20.04;59.93;100636.94;5018043;28;5296;-67
2022/09/25 12:02:20;;;;;;;;;;;;;;;20.06;60.13;100639.88;5021187;28;4396;-67
2022/09/25 12:04:58;;;;;;;;;;;;;;;20.05;59.96;100629.78;5027283;28;4211;-67
2022/09/25 12:07:32;;;;;;;;;;;;;;;20.08;60.19;100633.50;5030920;28;4208;-67
2022/09/25 12:10:05;;;;;;;;;;;;;;;20.08;60.10;100627.75;5028500;28;4172;-67
2022/09/25 12:12:50;;;;;;;;;;;;;;;20.09;60.08;100626.38;5026647;28;4363;-68
2022/09/25 12:15:24;;;;;;;;;;;;;;;20.11;60.05;100622.81;5029598;28;4245;-67
2022/09/25 12:17:56;;;;;;;;;;;;;;;20.11;60.14;100631.44;5026476;28;5376;-68
2022/09/25 12:20:41;;;;;;;;;;;;;;;20.16;59.81;100633.09;5011384;28;4268;-62
2022/09/25 12:23:12;;;;;;;;;;;;;;;20.12;59.13;100627.94;5019339;28;5089;-62
2022/09/25 12:25:57;;;;;;;;;;;;;;;20.13;57.14;100623.66;5032635;28;4164;-65
2022/09/25 12:28:38;;;;;;;;;;;;;;;20.13;58.29;100628.66;5026238;28;5417;-68
2022/09/25 12:31:12;;;;;;;;;;;;;;;20.18;58.57;100624.56;5013159;28;4249;-69
2022/09/25 12:33:48;;;;;;;;;;;;;;;20.23;58.62;100615.47;5019316;28;5395;-67
2022/09/25 12:36:24;;;;;;;;;;;;;;;20.47;58.28;100604.25;5022148;28;5321;-64
2022/09/25 12:38:54;;;;;;;;;;;;;;;20.63;58.28;100615.00;5022733;28;4606;-75
2022/09/25 12:41:33;;;;;;;;;;;;;;;20.66;58.50;100607.91;5022768;28;4639;-67
2022/09/25 12:44:01;;;;;;;;;;;;;;;20.78;58.77;100607.69;5025113;28;4409;-65
2022/09/25 12:46:36;;;;;;;;;;;;;;;20.94;58.29;100608.34;5028132;28;4551;-63
2022/09/25 12:49:13;;;;;;;;;;;;;;;20.98;58.32;100613.50;5027476;28;4249;-70
2022/09/25 12:51:40;;;;;;;;;;;;;;;20.87;58.16;100607.34;5026580;28;5241;-66
2022/09/25 12:54:14;;;;;;;;;;;;;;;20.94;58.04;100608.34;5030804;28;4204;-69
2022/09/25 12:56:42;;;;;;;;;;;;;;;20.87;58.19;100609.50;5025153;28;5396;-68
2022/09/25 12:59:10;;;;;;;;;;;;;;;20.83;58.36;100598.56;5030089;28;4320;-67
2022/09/25 13:01:46;;;;;;;;;;;;;;;20.82;58.31;100605.72;5027419;28;5348;-65
2022/09/25 13:04:17;;;;;;;;;;;;;;;21.09;58.27;100601.72;5030930;28;4200;-66
2022/09/25 13:06:48;;;;;;;;;;;;;;;21.07;57.81;100587.28;5019377;28;4197;-66
2022/09/25 13:09:29;;;;;;;;;;;;;;;20.81;57.97;100572.56;5017333;28;4735;-71
2022/09/25 13:12:00;;;;;;;;;;;;;;;21.02;57.91;100590.66;5015225;28;4696;-64
2022/09/25 13:14:41;;;;;;;;;;;;;;;21.12;57.30;100591.78;5012279;28;4203;-65
2022/09/25 13:17:09;;;;;;;;;;;;;;;21.01;57.67;100594.94;5016925;28;4591;-73
2022/09/25 13:19:35;;;;;;;;;;;;;;;21.09;55.71;100595.25;5016828;28;4560;-71